Halkirk, Canada
Current Conditions -  °F | °C
As of 5:00 AM on Thursday 18 Dec 2014 (Local Time) from CYQF Reporting Station
Clear Clear  
Wind Chill: -18°   Ceiling: Unl
Heat Index: -13°   Visibility: 10mi
Dew Point: -15°   Wind: 5mph
Humidity: 85%   Direction: 190°S
Pressure: 29.81"   Gusts: NA
Location:  52.28°N, 112.15°W
Report Text: CYQF 181200Z 19004KT 10SM SKC M13/M15 A2981 RMK FROIN SLP159
Loading
Personal Weather Stations






























Interactive Weather Map New forecast layout! Learn more

10-Day Weather Forecast

Advertisements
Track Severe Weather on mobile